sensor_id;sensor_type;location;lat;lon;timestamp;P1;durP1;ratioP1;P2;durP2;ratioP2
69878;SDS011;57161;43.136;24.706;2022-09-09T00:06:28;6.90;;;4.70;;
69878;SDS011;57161;43.136;24.706;2022-09-09T00:11:52;9.02;;;4.80;;
69878;SDS011;57161;43.136;24.706;2022-09-09T00:17:17;7.47;;;5.00;;
69878;SDS011;57161;43.136;24.706;2022-09-09T00:20:12;6.90;;;4.93;;
69878;SDS011;57161;43.136;24.706;2022-09-09T00:22:45;8.30;;;4.72;;
69878;SDS011;57161;43.136;24.706;2022-09-09T00:25:19;7.40;;;4.80;;
69878;SDS011;57161;43.136;24.706;2022-09-09T00:27:52;10.57;;;4.53;;
69878;SDS011;57161;43.136;24.706;2022-09-09T00:30:26;8.52;;;4.95;;
69878;SDS011;57161;43.136;24.706;2022-09-09T00:33:00;7.18;;;4.75;;
69878;SDS011;57161;43.136;24.706;2022-09-09T00:35:40;6.93;;;4.78;;
69878;SDS011;57161;43.136;24.706;2022-09-09T00:38:20;9.07;;;5.13;;
69878;SDS011;57161;43.136;24.706;2022-09-09T00:40:53;9.93;;;5.20;;
69878;SDS011;57161;43.136;24.706;2022-09-09T00:43:36;6.07;;;4.97;;
69878;SDS011;57161;43.136;24.706;2022-09-09T00:52:08;8.95;;;5.32;;
69878;SDS011;57161;43.136;24.706;2022-09-09T00:57:38;6.38;;;4.95;;
69878;SDS011;57161;43.136;24.706;2022-09-09T01:02:56;7.55;;;5.18;;
69878;SDS011;57161;43.136;24.706;2022-09-09T01:05:48;10.73;;;5.10;;
69878;SDS011;57161;43.136;24.706;2022-09-09T01:11:03;9.45;;;5.40;;
69878;SDS011;57161;43.136;24.706;2022-09-09T01:13:30;7.05;;;5.57;;
69878;SDS011;57161;43.136;24.706;2022-09-09T01:15:59;6.30;;;5.18;;
69878;SDS011;57161;43.136;24.706;2022-09-09T01:26:48;6.72;;;5.43;;
69878;SDS011;57161;43.136;24.706;2022-09-09T01:29:18;8.65;;;4.85;;
69878;SDS011;57161;43.136;24.706;2022-09-09T01:31:59;7.88;;;5.57;;
69878;SDS011;57161;43.136;24.706;2022-09-09T01:34:36;6.82;;;5.00;;
69878;SDS011;57161;43.136;24.706;2022-09-09T01:37:08;8.73;;;5.78;;
69878;SDS011;57161;43.136;24.706;2022-09-09T01:39:35;5.95;;;5.05;;
69878;SDS011;57161;43.136;24.706;2022-09-09T01:42:03;7.03;;;5.72;;
69878;SDS011;57161;43.136;24.706;2022-09-09T01:44:31;9.25;;;5.50;;
69878;SDS011;57161;43.136;24.706;2022-09-09T01:46:57;6.80;;;5.03;;
69878;SDS011;57161;43.136;24.706;2022-09-09T01:49:23;9.35;;;4.85;;
69878;SDS011;57161;43.136;24.706;2022-09-09T01:51:49;9.27;;;5.30;;
69878;SDS011;57161;43.136;24.706;2022-09-09T01:54:19;8.88;;;5.18;;
69878;SDS011;57161;43.136;24.706;2022-09-09T02:07:46;10.48;;;6.30;;
69878;SDS011;57161;43.136;24.706;2022-09-09T02:10:21;9.57;;;6.30;;
69878;SDS011;57161;43.136;24.706;2022-09-09T02:12:51;7.05;;;6.10;;
69878;SDS011;57161;43.136;24.706;2022-09-09T02:15:26;7.55;;;5.20;;
69878;SDS011;57161;43.136;24.706;2022-09-09T02:17:54;9.40;;;5.65;;
69878;SDS011;57161;43.136;24.706;2022-09-09T02:20:22;9.85;;;5.80;;
69878;SDS011;57161;43.136;24.706;2022-09-09T02:22:50;6.68;;;6.00;;
69878;SDS011;57161;43.136;24.706;2022-09-09T02:25:18;8.02;;;5.95;;
69878;SDS011;57161;43.136;24.706;2022-09-09T02:27:47;10.88;;;5.93;;
69878;SDS011;57161;43.136;24.706;2022-09-09T02:30:15;9.35;;;5.85;;
69878;SDS011;57161;43.136;24.706;2022-09-09T02:32:41;8.65;;;6.07;;
69878;SDS011;57161;43.136;24.706;2022-09-09T02:35:08;10.55;;;5.78;;
69878;SDS011;57161;43.136;24.706;2022-09-09T02:37:40;7.90;;;5.05;;
69878;SDS011;57161;43.136;24.706;2022-09-09T02:40:08;9.43;;;4.60;;
69878;SDS011;57161;43.136;24.706;2022-09-09T02:42:39;13.07;;;5.22;;
69878;SDS011;57161;43.136;24.706;2022-09-09T02:45:06;10.00;;;5.28;;
69878;SDS011;57161;43.136;24.706;2022-09-09T02:47:36;6.47;;;5.20;;
69878;SDS011;57161;43.136;24.706;2022-09-09T02:55:28;7.72;;;5.78;;
69878;SDS011;57161;43.136;24.706;2022-09-09T02:58:03;11.60;;;5.35;;
69878;SDS011;57161;43.136;24.706;2022-09-09T03:00:32;9.35;;;4.82;;
69878;SDS011;57161;43.136;24.706;2022-09-09T03:02:58;6.15;;;5.25;;
69878;SDS011;57161;43.136;24.706;2022-09-09T03:05:24;10.27;;;5.15;;
69878;SDS011;57161;43.136;24.706;2022-09-09T03:07:50;7.03;;;5.45;;
69878;SDS011;57161;43.136;24.706;2022-09-09T03:10:16;6.72;;;5.07;;
69878;SDS011;57161;43.136;24.706;2022-09-09T03:12:42;8.07;;;4.80;;
69878;SDS011;57161;43.136;24.706;2022-09-09T03:15:08;6.03;;;4.75;;
69878;SDS011;57161;43.136;24.706;2022-09-09T03:17:35;6.45;;;4.95;;
69878;SDS011;57161;43.136;24.706;2022-09-09T03:20:01;10.88;;;4.85;;
69878;SDS011;57161;43.136;24.706;2022-09-09T03:22:30;9.95;;;5.15;;
69878;SDS011;57161;43.136;24.706;2022-09-09T03:24:55;7.72;;;5.43;;
69878;SDS011;57161;43.136;24.706;2022-09-09T03:27:21;7.45;;;4.88;;
69878;SDS011;57161;43.136;24.706;2022-09-09T03:29:47;7.55;;;4.80;;
69878;SDS011;57161;43.136;24.706;2022-09-09T03:32:15;8.02;;;5.05;;
69878;SDS011;57161;43.136;24.706;2022-09-09T03:34:42;9.85;;;5.43;;
69878;SDS011;57161;43.136;24.706;2022-09-09T03:37:07;9.73;;;5.45;;
69878;SDS011;57161;43.136;24.706;2022-09-09T03:39:33;9.57;;;5.38;;
69878;SDS011;57161;43.136;24.706;2022-09-09T03:42:01;7.18;;;5.75;;
69878;SDS011;57161;43.136;24.706;2022-09-09T03:44:29;12.32;;;6.03;;
69878;SDS011;57161;43.136;24.706;2022-09-09T03:46:55;11.85;;;5.93;;
69878;SDS011;57161;43.136;24.706;2022-09-09T03:49:20;11.52;;;5.90;;
69878;SDS011;57161;43.136;24.706;2022-09-09T03:51:47;9.05;;;4.93;;
69878;SDS011;57161;43.136;24.706;2022-09-09T03:54:12;8.73;;;5.32;;
69878;SDS011;57161;43.136;24.706;2022-09-09T03:56:37;8.57;;;4.90;;
69878;SDS011;57161;43.136;24.706;2022-09-09T03:59:03;9.90;;;5.40;;
69878;SDS011;57161;43.136;24.706;2022-09-09T04:01:29;10.63;;;5.10;;
69878;SDS011;57161;43.136;24.706;2022-09-09T04:03:55;6.35;;;5.30;;
69878;SDS011;57161;43.136;24.706;2022-09-09T04:06:23;7.45;;;4.90;;
69878;SDS011;57161;43.136;24.706;2022-09-09T04:08:49;7.70;;;5.32;;
69878;SDS011;57161;43.136;24.706;2022-09-09T04:11:15;10.73;;;5.25;;
69878;SDS011;57161;43.136;24.706;2022-09-09T04:13:41;10.70;;;5.35;;
69878;SDS011;57161;43.136;24.706;2022-09-09T04:16:06;8.85;;;4.97;;
69878;SDS011;57161;43.136;24.706;2022-09-09T04:18:34;10.20;;;5.38;;
69878;SDS011;57161;43.136;24.706;2022-09-09T04:21:00;8.93;;;5.88;;
69878;SDS011;57161;43.136;24.706;2022-09-09T04:23:26;9.90;;;5.47;;
69878;SDS011;57161;43.136;24.706;2022-09-09T04:25:56;10.20;;;5.72;;
69878;SDS011;57161;43.136;24.706;2022-09-09T04:28:24;12.43;;;5.03;;
69878;SDS011;57161;43.136;24.706;2022-09-09T04:30:51;11.85;;;4.95;;
69878;SDS011;57161;43.136;24.706;2022-09-09T04:33:17;8.82;;;4.65;;
69878;SDS011;57161;43.136;24.706;2022-09-09T04:35:43;8.73;;;5.18;;
69878;SDS011;57161;43.136;24.706;2022-09-09T04:38:10;7.78;;;5.05;;
69878;SDS011;57161;43.136;24.706;2022-09-09T04:40:36;12.13;;;5.15;;
69878;SDS011;57161;43.136;24.706;2022-09-09T04:43:02;9.35;;;5.45;;
69878;SDS011;57161;43.136;24.706;2022-09-09T04:45:31;6.00;;;4.80;;
69878;SDS011;57161;43.136;24.706;2022-09-09T04:47:58;6.57;;;4.88;;
69878;SDS011;57161;43.136;24.706;2022-09-09T04:50:24;11.23;;;4.50;;
69878;SDS011;57161;43.136;24.706;2022-09-09T04:52:50;9.00;;;4.40;;
69878;SDS011;57161;43.136;24.706;2022-09-09T04:55:16;8.05;;;4.38;;
69878;SDS011;57161;43.136;24.706;2022-09-09T04:57:41;6.72;;;4.43;;
69878;SDS011;57161;43.136;24.706;2022-09-09T05:00:07;9.40;;;4.55;;
69878;SDS011;57161;43.136;24.706;2022-09-09T05:02:33;7.28;;;4.43;;
69878;SDS011;57161;43.136;24.706;2022-09-09T05:05:03;12.35;;;6.18;;
69878;SDS011;57161;43.136;24.706;2022-09-09T05:07:29;9.77;;;4.75;;
69878;SDS011;57161;43.136;24.706;2022-09-09T05:09:56;8.30;;;5.18;;
69878;SDS011;57161;43.136;24.706;2022-09-09T05:12:22;15.57;;;5.25;;
69878;SDS011;57161;43.136;24.706;2022-09-09T05:14:49;7.35;;;4.20;;
69878;SDS011;57161;43.136;24.706;2022-09-09T05:17:15;8.85;;;4.45;;
69878;SDS011;57161;43.136;24.706;2022-09-09T05:19:41;10.38;;;4.57;;
69878;SDS011;57161;43.136;24.706;2022-09-09T05:22:07;9.95;;;4.40;;
69878;SDS011;57161;43.136;24.706;2022-09-09T05:24:32;9.05;;;4.90;;
69878;SDS011;57161;43.136;24.706;2022-09-09T05:26:58;16.70;;;4.80;;
69878;SDS011;57161;43.136;24.706;2022-09-09T05:29:26;7.20;;;4.25;;
69878;SDS011;57161;43.136;24.706;2022-09-09T05:31:52;11.18;;;4.53;;
69878;SDS011;57161;43.136;24.706;2022-09-09T05:34:18;9.38;;;4.70;;
69878;SDS011;57161;43.136;24.706;2022-09-09T05:36:43;12.85;;;4.18;;
69878;SDS011;57161;43.136;24.706;2022-09-09T05:39:09;11.13;;;4.60;;
69878;SDS011;57161;43.136;24.706;2022-09-09T05:41:37;7.45;;;4.55;;
69878;SDS011;57161;43.136;24.706;2022-09-09T05:44:02;9.50;;;4.57;;
69878;SDS011;57161;43.136;24.706;2022-09-09T05:46:28;13.30;;;4.55;;
69878;SDS011;57161;43.136;24.706;2022-09-09T05:48:55;11.27;;;4.35;;
69878;SDS011;57161;43.136;24.706;2022-09-09T05:51:21;7.95;;;4.65;;
69878;SDS011;57161;43.136;24.706;2022-09-09T05:53:49;11.63;;;4.63;;
69878;SDS011;57161;43.136;24.706;2022-09-09T05:56:23;8.90;;;4.60;;
69878;SDS011;57161;43.136;24.706;2022-09-09T05:58:50;9.98;;;4.75;;
69878;SDS011;57161;43.136;24.706;2022-09-09T06:01:19;9.65;;;4.38;;
69878;SDS011;57161;43.136;24.706;2022-09-09T06:03:53;6.72;;;4.18;;
69878;SDS011;57161;43.136;24.706;2022-09-09T06:06:20;8.82;;;3.92;;
69878;SDS011;57161;43.136;24.706;2022-09-09T06:08:47;7.85;;;4.28;;
69878;SDS011;57161;43.136;24.706;2022-09-09T06:11:23;8.15;;;4.13;;
69878;SDS011;57161;43.136;24.706;2022-09-09T06:13:50;11.02;;;4.70;;
69878;SDS011;57161;43.136;24.706;2022-09-09T06:16:20;9.13;;;4.15;;
69878;SDS011;57161;43.136;24.706;2022-09-09T06:18:48;9.43;;;4.22;;
69878;SDS011;57161;43.136;24.706;2022-09-09T06:21:19;11.43;;;4.25;;
69878;SDS011;57161;43.136;24.706;2022-09-09T06:23:45;10.88;;;4.15;;
69878;SDS011;57161;43.136;24.706;2022-09-09T06:26:13;8.63;;;4.13;;
69878;SDS011;57161;43.136;24.706;2022-09-09T06:28:42;10.68;;;4.20;;
69878;SDS011;57161;43.136;24.706;2022-09-09T06:31:10;8.00;;;3.92;;
69878;SDS011;57161;43.136;24.706;2022-09-09T06:33:37;6.32;;;4.18;;
69878;SDS011;57161;43.136;24.706;2022-09-09T06:36:06;7.43;;;4.03;;
69878;SDS011;57161;43.136;24.706;2022-09-09T06:38:35;8.35;;;4.07;;
69878;SDS011;57161;43.136;24.706;2022-09-09T06:41:01;9.15;;;3.58;;
69878;SDS011;57161;43.136;24.706;2022-09-09T06:43:26;7.72;;;3.58;;
69878;SDS011;57161;43.136;24.706;2022-09-09T06:45:56;6.22;;;3.35;;
69878;SDS011;57161;43.136;24.706;2022-09-09T06:48:27;7.35;;;3.55;;
69878;SDS011;57161;43.136;24.706;2022-09-09T06:51:00;7.65;;;3.75;;
69878;SDS011;57161;43.136;24.706;2022-09-09T06:53:26;9.82;;;3.90;;
69878;SDS011;57161;43.136;24.706;2022-09-09T06:55:52;11.40;;;4.00;;
69878;SDS011;57161;43.136;24.706;2022-09-09T06:58:19;7.72;;;3.40;;
69878;SDS011;57161;43.136;24.706;2022-09-09T07:00:46;8.10;;;3.58;;
69878;SDS011;57161;43.136;24.706;2022-09-09T07:03:12;8.57;;;3.63;;
69878;SDS011;57161;43.136;24.706;2022-09-09T07:05:38;8.45;;;3.60;;
69878;SDS011;57161;43.136;24.706;2022-09-09T07:08:03;6.40;;;3.40;;
69878;SDS011;57161;43.136;24.706;2022-09-09T07:10:29;8.00;;;3.33;;
69878;SDS011;57161;43.136;24.706;2022-09-09T07:12:54;7.45;;;3.60;;
69878;SDS011;57161;43.136;24.706;2022-09-09T07:15:20;5.55;;;3.40;;
69878;SDS011;57161;43.136;24.706;2022-09-09T07:17:47;7.07;;;3.50;;
69878;SDS011;57161;43.136;24.706;2022-09-09T07:20:13;5.63;;;3.50;;
69878;SDS011;57161;43.136;24.706;2022-09-09T07:22:40;7.97;;;3.42;;
69878;SDS011;57161;43.136;24.706;2022-09-09T07:25:06;9.02;;;3.80;;
69878;SDS011;57161;43.136;24.706;2022-09-09T07:27:32;6.35;;;3.63;;
69878;SDS011;57161;43.136;24.706;2022-09-09T07:29:58;6.85;;;3.50;;
69878;SDS011;57161;43.136;24.706;2022-09-09T07:32:24;5.57;;;3.45;;
69878;SDS011;57161;43.136;24.706;2022-09-09T07:34:50;5.03;;;3.42;;
69878;SDS011;57161;43.136;24.706;2022-09-09T07:37:16;4.22;;;3.53;;
69878;SDS011;57161;43.136;24.706;2022-09-09T07:39:42;7.82;;;3.42;;
69878;SDS011;57161;43.136;24.706;2022-09-09T07:42:08;10.13;;;3.38;;
69878;SDS011;57161;43.136;24.706;2022-09-09T07:44:35;5.78;;;3.85;;
69878;SDS011;57161;43.136;24.706;2022-09-09T07:47:01;7.40;;;3.60;;
69878;SDS011;57161;43.136;24.706;2022-09-09T07:49:28;10.55;;;4.10;;
69878;SDS011;57161;43.136;24.706;2022-09-09T07:51:54;8.27;;;3.60;;
69878;SDS011;57161;43.136;24.706;2022-09-09T07:54:19;8.95;;;3.72;;
69878;SDS011;57161;43.136;24.706;2022-09-09T07:56:45;11.20;;;3.88;;
69878;SDS011;57161;43.136;24.706;2022-09-09T07:59:12;8.80;;;3.75;;
69878;SDS011;57161;43.136;24.706;2022-09-09T08:01:42;8.57;;;3.55;;
69878;SDS011;57161;43.136;24.706;2022-09-09T08:04:11;10.93;;;3.83;;
69878;SDS011;57161;43.136;24.706;2022-09-09T08:06:46;9.13;;;3.72;;
69878;SDS011;57161;43.136;24.706;2022-09-09T08:09:14;8.95;;;3.38;;
69878;SDS011;57161;43.136;24.706;2022-09-09T08:11:40;6.32;;;3.80;;
69878;SDS011;57161;43.136;24.706;2022-09-09T08:14:07;8.13;;;3.20;;
69878;SDS011;57161;43.136;24.706;2022-09-09T08:16:35;6.55;;;3.75;;
69878;SDS011;57161;43.136;24.706;2022-09-09T08:19:05;8.68;;;3.45;;
69878;SDS011;57161;43.136;24.706;2022-09-09T08:21:32;4.38;;;3.53;;
69878;SDS011;57161;43.136;24.706;2022-09-09T08:24:00;14.52;;;3.85;;
69878;SDS011;57161;43.136;24.706;2022-09-09T08:26:27;7.13;;;4.38;;
69878;SDS011;57161;43.136;24.706;2022-09-09T08:28:58;5.93;;;3.53;;
69878;SDS011;57161;43.136;24.706;2022-09-09T08:31:28;7.55;;;4.20;;
69878;SDS011;57161;43.136;24.706;2022-09-09T08:34:02;9.13;;;3.80;;
69878;SDS011;57161;43.136;24.706;2022-09-09T08:36:29;11.23;;;3.50;;
69878;SDS011;57161;43.136;24.706;2022-09-09T08:38:58;7.93;;;3.83;;
69878;SDS011;57161;43.136;24.706;2022-09-09T08:52:26;10.88;;;3.65;;
69878;SDS011;57161;43.136;24.706;2022-09-09T08:54:59;6.80;;;4.22;;
69878;SDS011;57161;43.136;24.706;2022-09-09T08:57:38;9.57;;;4.30;;
69878;SDS011;57161;43.136;24.706;2022-09-09T09:00:04;6.97;;;3.90;;
69878;SDS011;57161;43.136;24.706;2022-09-09T09:08:20;7.93;;;3.75;;
69878;SDS011;57161;43.136;24.706;2022-09-09T09:10:58;7.80;;;4.03;;
69878;SDS011;57161;43.136;24.706;2022-09-09T09:19:22;12.13;;;3.78;;
69878;SDS011;57161;43.136;24.706;2022-09-09T09:27:15;9.27;;;4.07;;
69878;SDS011;57161;43.136;24.706;2022-09-09T09:29:43;9.43;;;4.20;;
69878;SDS011;57161;43.136;24.706;2022-09-09T09:32:11;9.65;;;3.83;;
69878;SDS011;57161;43.136;24.706;2022-09-09T09:34:41;8.02;;;4.10;;
69878;SDS011;57161;43.136;24.706;2022-09-09T09:37:12;10.65;;;4.03;;
69878;SDS011;57161;43.136;24.706;2022-09-09T09:39:45;8.40;;;4.00;;
69878;SDS011;57161;43.136;24.706;2022-09-09T09:42:12;15.05;;;4.65;;
69878;SDS011;57161;43.136;24.706;2022-09-09T09:44:39;7.65;;;4.00;;
69878;SDS011;57161;43.136;24.706;2022-09-09T09:49:52;10.57;;;4.38;;
69878;SDS011;57161;43.136;24.706;2022-09-09T09:52:21;9.32;;;3.92;;
69878;SDS011;57161;43.136;24.706;2022-09-09T09:54:49;9.82;;;4.28;;
69878;SDS011;57161;43.136;24.706;2022-09-09T09:57:17;6.78;;;3.47;;
69878;SDS011;57161;43.136;24.706;2022-09-09T09:59:44;7.43;;;3.42;;
69878;SDS011;57161;43.136;24.706;2022-09-09T10:02:20;12.40;;;3.50;;
69878;SDS011;57161;43.136;24.706;2022-09-09T10:05:04;12.75;;;3.95;;
69878;SDS011;57161;43.136;24.706;2022-09-09T10:07:31;12.23;;;3.83;;
69878;SDS011;57161;43.136;24.706;2022-09-09T10:09:58;7.20;;;3.78;;
69878;SDS011;57161;43.136;24.706;2022-09-09T10:18:18;8.23;;;3.83;;
69878;SDS011;57161;43.136;24.706;2022-09-09T10:40:12;10.27;;;4.15;;
69878;SDS011;57161;43.136;24.706;2022-09-09T10:42:46;8.00;;;3.83;;
69878;SDS011;57161;43.136;24.706;2022-09-09T10:48:27;7.38;;;4.10;;
69878;SDS011;57161;43.136;24.706;2022-09-09T10:51:10;10.68;;;4.07;;
69878;SDS011;57161;43.136;24.706;2022-09-09T10:56:16;10.55;;;4.13;;
69878;SDS011;57161;43.136;24.706;2022-09-09T10:59:03;7.80;;;3.90;;
69878;SDS011;57161;43.136;24.706;2022-09-09T11:04:19;9.68;;;3.83;;
69878;SDS011;57161;43.136;24.706;2022-09-09T11:06:50;9.82;;;4.22;;
69878;SDS011;57161;43.136;24.706;2022-09-09T11:09:28;14.48;;;4.25;;
69878;SDS011;57161;43.136;24.706;2022-09-09T11:11:58;8.15;;;3.90;;
69878;SDS011;57161;43.136;24.706;2022-09-09T11:17:01;12.20;;;4.28;;
69878;SDS011;57161;43.136;24.706;2022-09-09T11:21:57;10.45;;;3.90;;
69878;SDS011;57161;43.136;24.706;2022-09-09T11:26:55;13.73;;;4.20;;
69878;SDS011;57161;43.136;24.706;2022-09-09T11:35:44;12.90;;;4.25;;
69878;SDS011;57161;43.136;24.706;2022-09-09T11:40:58;10.20;;;4.10;;
69878;SDS011;57161;43.136;24.706;2022-09-09T11:46:03;8.77;;;4.28;;
69878;SDS011;57161;43.136;24.706;2022-09-09T11:48:42;14.40;;;4.72;;
69878;SDS011;57161;43.136;24.706;2022-09-09T11:53:59;11.10;;;4.60;;
69878;SDS011;57161;43.136;24.706;2022-09-09T11:56:45;9.45;;;4.72;;
69878;SDS011;57161;43.136;24.706;2022-09-09T11:59:21;7.78;;;4.53;;
69878;SDS011;57161;43.136;24.706;2022-09-09T12:01:57;9.93;;;4.72;;
69878;SDS011;57161;43.136;24.706;2022-09-09T12:04:36;10.05;;;4.20;;
69878;SDS011;57161;43.136;24.706;2022-09-09T12:09:54;10.23;;;4.50;;
69878;SDS011;57161;43.136;24.706;2022-09-09T12:12:30;7.15;;;3.80;;
69878;SDS011;57161;43.136;24.706;2022-09-09T12:15:02;10.15;;;4.32;;
69878;SDS011;57161;43.136;24.706;2022-09-09T12:17:55;8.68;;;4.22;;
69878;SDS011;57161;43.136;24.706;2022-09-09T12:20:50;7.90;;;4.47;;
69878;SDS011;57161;43.136;24.706;2022-09-09T12:23:24;8.77;;;4.40;;
69878;SDS011;57161;43.136;24.706;2022-09-09T12:28:31;10.18;;;4.80;;
69878;SDS011;57161;43.136;24.706;2022-09-09T12:34:10;8.10;;;4.40;;
69878;SDS011;57161;43.136;24.706;2022-09-09T12:36:41;11.50;;;4.60;;
69878;SDS011;57161;43.136;24.706;2022-09-09T12:39:32;9.98;;;4.40;;
69878;SDS011;57161;43.136;24.706;2022-09-09T12:42:02;10.27;;;4.88;;
69878;SDS011;57161;43.136;24.706;2022-09-09T12:44:28;10.10;;;4.20;;
69878;SDS011;57161;43.136;24.706;2022-09-09T12:46:55;9.30;;;4.80;;
69878;SDS011;57161;43.136;24.706;2022-09-09T12:52:04;10.45;;;5.30;;
69878;SDS011;57161;43.136;24.706;2022-09-09T12:54:30;9.88;;;5.15;;
69878;SDS011;57161;43.136;24.706;2022-09-09T12:56:58;9.25;;;4.65;;
69878;SDS011;57161;43.136;24.706;2022-09-09T12:59:34;8.32;;;5.10;;
69878;SDS011;57161;43.136;24.706;2022-09-09T13:02:02;11.95;;;5.68;;
69878;SDS011;57161;43.136;24.706;2022-09-09T13:04:27;8.13;;;4.78;;
69878;SDS011;57161;43.136;24.706;2022-09-09T13:06:53;12.50;;;4.75;;
69878;SDS011;57161;43.136;24.706;2022-09-09T13:09:18;11.45;;;5.40;;
69878;SDS011;57161;43.136;24.706;2022-09-09T13:11:52;11.57;;;5.07;;
69878;SDS011;57161;43.136;24.706;2022-09-09T13:14:31;14.77;;;5.60;;
69878;SDS011;57161;43.136;24.706;2022-09-09T13:17:00;12.77;;;5.15;;
69878;SDS011;57161;43.136;24.706;2022-09-09T13:19:33;10.50;;;5.25;;
69878;SDS011;57161;43.136;24.706;2022-09-09T13:22:14;13.63;;;5.63;;
69878;SDS011;57161;43.136;24.706;2022-09-09T13:28:02;7.68;;;5.35;;
69878;SDS011;57161;43.136;24.706;2022-09-09T13:35:35;11.15;;;5.53;;
69878;SDS011;57161;43.136;24.706;2022-09-09T13:38:13;11.20;;;5.03;;
69878;SDS011;57161;43.136;24.706;2022-09-09T13:40:40;9.13;;;5.68;;
69878;SDS011;57161;43.136;24.706;2022-09-09T13:43:20;11.52;;;5.88;;
69878;SDS011;57161;43.136;24.706;2022-09-09T13:48:21;10.13;;;5.95;;
69878;SDS011;57161;43.136;24.706;2022-09-09T13:50:54;13.20;;;6.22;;
69878;SDS011;57161;43.136;24.706;2022-09-09T13:53:32;10.30;;;5.95;;
69878;SDS011;57161;43.136;24.706;2022-09-09T13:55:58;18.02;;;6.38;;
69878;SDS011;57161;43.136;24.706;2022-09-09T13:58:24;19.20;;;6.60;;
69878;SDS011;57161;43.136;24.706;2022-09-09T14:00:51;15.65;;;6.57;;
69878;SDS011;57161;43.136;24.706;2022-09-09T14:03:18;11.88;;;6.10;;
69878;SDS011;57161;43.136;24.706;2022-09-09T14:05:44;15.52;;;6.45;;
69878;SDS011;57161;43.136;24.706;2022-09-09T14:08:14;13.45;;;6.30;;
69878;SDS011;57161;43.136;24.706;2022-09-09T14:10:48;11.30;;;5.93;;
69878;SDS011;57161;43.136;24.706;2022-09-09T14:13:14;13.13;;;6.22;;
69878;SDS011;57161;43.136;24.706;2022-09-09T14:15:40;16.17;;;6.30;;
69878;SDS011;57161;43.136;24.706;2022-09-09T14:18:06;14.57;;;5.65;;
69878;SDS011;57161;43.136;24.706;2022-09-09T14:20:37;18.90;;;6.22;;
69878;SDS011;57161;43.136;24.706;2022-09-09T14:23:03;10.25;;;5.93;;
69878;SDS011;57161;43.136;24.706;2022-09-09T14:25:28;20.88;;;6.40;;
69878;SDS011;57161;43.136;24.706;2022-09-09T14:27:54;14.18;;;6.07;;
69878;SDS011;57161;43.136;24.706;2022-09-09T14:30:21;19.88;;;6.18;;
69878;SDS011;57161;43.136;24.706;2022-09-09T14:32:47;12.77;;;6.18;;
69878;SDS011;57161;43.136;24.706;2022-09-09T14:35:12;16.92;;;6.00;;
69878;SDS011;57161;43.136;24.706;2022-09-09T14:37:37;11.85;;;5.68;;
69878;SDS011;57161;43.136;24.706;2022-09-09T14:40:04;17.60;;;6.05;;
69878;SDS011;57161;43.136;24.706;2022-09-09T14:42:30;11.27;;;5.97;;
69878;SDS011;57161;43.136;24.706;2022-09-09T14:44:55;14.70;;;5.72;;
69878;SDS011;57161;43.136;24.706;2022-09-09T14:47:20;22.15;;;6.07;;
69878;SDS011;57161;43.136;24.706;2022-09-09T14:49:47;10.80;;;5.57;;
69878;SDS011;57161;43.136;24.706;2022-09-09T14:52:14;15.77;;;6.30;;
69878;SDS011;57161;43.136;24.706;2022-09-09T14:54:41;14.25;;;5.90;;
69878;SDS011;57161;43.136;24.706;2022-09-09T14:57:06;12.55;;;6.18;;
69878;SDS011;57161;43.136;24.706;2022-09-09T14:59:32;14.30;;;5.85;;
69878;SDS011;57161;43.136;24.706;2022-09-09T15:01:57;16.58;;;6.40;;
69878;SDS011;57161;43.136;24.706;2022-09-09T15:04:25;12.65;;;6.50;;
69878;SDS011;57161;43.136;24.706;2022-09-09T15:06:51;13.60;;;6.43;;
69878;SDS011;57161;43.136;24.706;2022-09-09T15:09:18;12.65;;;6.63;;
69878;SDS011;57161;43.136;24.706;2022-09-09T15:11:43;15.05;;;6.63;;
69878;SDS011;57161;43.136;24.706;2022-09-09T15:14:09;12.25;;;6.35;;
69878;SDS011;57161;43.136;24.706;2022-09-09T15:16:35;16.67;;;6.32;;
69878;SDS011;57161;43.136;24.706;2022-09-09T15:19:01;15.68;;;6.32;;
69878;SDS011;57161;43.136;24.706;2022-09-09T15:21:32;13.23;;;6.13;;
69878;SDS011;57161;43.136;24.706;2022-09-09T15:23:59;17.17;;;6.22;;
69878;SDS011;57161;43.136;24.706;2022-09-09T15:26:25;17.63;;;6.68;;
69878;SDS011;57161;43.136;24.706;2022-09-09T15:28:52;15.23;;;6.00;;
69878;SDS011;57161;43.136;24.706;2022-09-09T15:31:20;15.77;;;6.10;;
69878;SDS011;57161;43.136;24.706;2022-09-09T15:33:50;15.32;;;7.20;;
69878;SDS011;57161;43.136;24.706;2022-09-09T15:38:47;22.52;;;6.72;;
69878;SDS011;57161;43.136;24.706;2022-09-09T15:41:13;9.43;;;6.25;;
69878;SDS011;57161;43.136;24.706;2022-09-09T15:43:43;15.32;;;6.00;;
69878;SDS011;57161;43.136;24.706;2022-09-09T15:48:42;16.80;;;6.65;;
69878;SDS011;57161;43.136;24.706;2022-09-09T15:51:09;23.45;;;7.57;;
69878;SDS011;57161;43.136;24.706;2022-09-09T15:53:36;13.95;;;6.55;;
69878;SDS011;57161;43.136;24.706;2022-09-09T15:56:04;16.50;;;6.40;;
69878;SDS011;57161;43.136;24.706;2022-09-09T15:58:31;19.67;;;6.15;;
69878;SDS011;57161;43.136;24.706;2022-09-09T16:01:07;18.20;;;6.50;;
69878;SDS011;57161;43.136;24.706;2022-09-09T16:03:37;16.05;;;6.68;;
69878;SDS011;57161;43.136;24.706;2022-09-09T16:06:04;12.38;;;6.22;;
69878;SDS011;57161;43.136;24.706;2022-09-09T16:08:34;17.88;;;7.07;;
69878;SDS011;57161;43.136;24.706;2022-09-09T16:11:05;12.68;;;6.35;;
69878;SDS011;57161;43.136;24.706;2022-09-09T16:13:34;20.08;;;6.53;;
69878;SDS011;57161;43.136;24.706;2022-09-09T16:16:01;19.60;;;7.15;;
69878;SDS011;57161;43.136;24.706;2022-09-09T16:18:32;18.95;;;6.85;;
69878;SDS011;57161;43.136;24.706;2022-09-09T16:21:02;21.50;;;8.75;;
69878;SDS011;57161;43.136;24.706;2022-09-09T16:23:31;21.10;;;9.50;;
69878;SDS011;57161;43.136;24.706;2022-09-09T16:25:57;19.95;;;8.73;;
69878;SDS011;57161;43.136;24.706;2022-09-09T16:28:22;19.15;;;7.88;;
69878;SDS011;57161;43.136;24.706;2022-09-09T16:30:48;17.40;;;8.63;;
69878;SDS011;57161;43.136;24.706;2022-09-09T16:33:14;17.45;;;7.82;;
69878;SDS011;57161;43.136;24.706;2022-09-09T16:35:41;18.70;;;8.13;;
69878;SDS011;57161;43.136;24.706;2022-09-09T16:38:06;11.65;;;7.68;;
69878;SDS011;57161;43.136;24.706;2022-09-09T16:40:38;16.73;;;7.85;;
69878;SDS011;57161;43.136;24.706;2022-09-09T16:43:06;16.15;;;7.07;;
69878;SDS011;57161;43.136;24.706;2022-09-09T16:45:32;25.35;;;8.90;;
69878;SDS011;57161;43.136;24.706;2022-09-09T16:47:58;16.83;;;8.60;;
69878;SDS011;57161;43.136;24.706;2022-09-09T16:50:25;12.60;;;8.23;;
69878;SDS011;57161;43.136;24.706;2022-09-09T16:52:51;15.57;;;7.85;;
69878;SDS011;57161;43.136;24.706;2022-09-09T16:55:17;17.00;;;8.13;;
69878;SDS011;57161;43.136;24.706;2022-09-09T16:57:45;15.65;;;7.55;;
69878;SDS011;57161;43.136;24.706;2022-09-09T17:00:14;12.68;;;8.30;;
69878;SDS011;57161;43.136;24.706;2022-09-09T17:02:41;21.92;;;8.40;;
69878;SDS011;57161;43.136;24.706;2022-09-09T17:05:08;108.30;;;12.23;;
69878;SDS011;57161;43.136;24.706;2022-09-09T17:07:34;37.47;;;9.77;;
69878;SDS011;57161;43.136;24.706;2022-09-09T17:10:00;15.15;;;7.90;;
69878;SDS011;57161;43.136;24.706;2022-09-09T17:12:26;18.00;;;8.05;;
69878;SDS011;57161;43.136;24.706;2022-09-09T17:14:52;19.08;;;8.55;;
69878;SDS011;57161;43.136;24.706;2022-09-09T17:17:17;16.33;;;8.50;;
69878;SDS011;57161;43.136;24.706;2022-09-09T17:19:43;16.98;;;7.93;;
69878;SDS011;57161;43.136;24.706;2022-09-09T17:22:08;16.00;;;7.93;;